sensor_id;sensor_type;location;lat;lon;timestamp;temperature;humidity
29551;DHT22;16488;52.396;10.696;2023-07-31T00:01:56;16.10;99.90
29551;DHT22;16488;52.396;10.696;2023-07-31T00:04:22;16.10;99.90
29551;DHT22;16488;52.396;10.696;2023-07-31T00:06:47;16.00;99.90
29551;DHT22;16488;52.396;10.696;2023-07-31T00:09:13;16.00;99.90
29551;DHT22;16488;52.396;10.696;2023-07-31T00:11:39;16.10;99.90
29551;DHT22;16488;52.396;10.696;2023-07-31T00:14:04;16.00;99.90
29551;DHT22;16488;52.396;10.696;2023-07-31T00:16:30;16.00;99.90
29551;DHT22;16488;52.396;10.696;2023-07-31T00:18:56;16.00;99.90
29551;DHT22;16488;52.396;10.696;2023-07-31T00:21:21;15.90;99.90
29551;DHT22;16488;52.396;10.696;2023-07-31T00:23:47;16.00;99.90
29551;DHT22;16488;52.396;10.696;2023-07-31T00:26:12;15.90;99.90
29551;DHT22;16488;52.396;10.696;2023-07-31T00:28:38;15.90;99.90
29551;DHT22;16488;52.396;10.696;2023-07-31T00:31:04;15.90;99.90
29551;DHT22;16488;52.396;10.696;2023-07-31T00:33:31;15.90;99.90
29551;DHT22;16488;52.396;10.696;2023-07-31T00:35:57;15.80;99.90
29551;DHT22;16488;52.396;10.696;2023-07-31T00:38:22;15.80;99.90
29551;DHT22;16488;52.396;10.696;2023-07-31T00:40:48;15.80;99.90
29551;DHT22;16488;52.396;10.696;2023-07-31T00:43:14;15.80;99.90
29551;DHT22;16488;52.396;10.696;2023-07-31T00:45:39;15.70;99.90
29551;DHT22;16488;52.396;10.696;2023-07-31T00:48:05;15.70;99.90
29551;DHT22;16488;52.396;10.696;2023-07-31T00:50:35;15.70;99.90
29551;DHT22;16488;52.396;10.696;2023-07-31T00:53:01;15.70;99.90
29551;DHT22;16488;52.396;10.696;2023-07-31T00:55:26;15.70;99.90
29551;DHT22;16488;52.396;10.696;2023-07-31T00:57:52;15.70;99.90
29551;DHT22;16488;52.396;10.696;2023-07-31T01:00:21;15.70;99.90
29551;DHT22;16488;52.396;10.696;2023-07-31T01:02:50;15.70;99.90
29551;DHT22;16488;52.396;10.696;2023-07-31T01:05:25;15.70;99.90
29551;DHT22;16488;52.396;10.696;2023-07-31T01:08:27;15.70;99.90
29551;DHT22;16488;52.396;10.696;2023-07-31T01:11:00;15.70;99.90
29551;DHT22;16488;52.396;10.696;2023-07-31T01:13:26;15.60;99.90
29551;DHT22;16488;52.396;10.696;2023-07-31T01:15:53;15.70;99.90
29551;DHT22;16488;52.396;10.696;2023-07-31T01:18:18;15.60;99.90
29551;DHT22;16488;52.396;10.696;2023-07-31T01:20:48;15.60;99.90
29551;DHT22;16488;52.396;10.696;2023-07-31T01:26:17;15.60;99.90
29551;DHT22;16488;52.396;10.696;2023-07-31T01:31:23;15.60;99.90
29551;DHT22;16488;52.396;10.696;2023-07-31T01:33:50;15.60;99.90
29551;DHT22;16488;52.396;10.696;2023-07-31T01:36:18;15.60;99.90
29551;DHT22;16488;52.396;10.696;2023-07-31T01:38:43;15.60;99.90
29551;DHT22;16488;52.396;10.696;2023-07-31T01:41:09;15.60;99.90
29551;DHT22;16488;52.396;10.696;2023-07-31T01:43:35;15.50;99.90
29551;DHT22;16488;52.396;10.696;2023-07-31T01:46:01;15.50;99.90
29551;DHT22;16488;52.396;10.696;2023-07-31T01:48:27;15.50;99.90
29551;DHT22;16488;52.396;10.696;2023-07-31T01:50:52;15.40;99.90
29551;DHT22;16488;52.396;10.696;2023-07-31T01:53:18;15.40;99.90
29551;DHT22;16488;52.396;10.696;2023-07-31T01:55:44;15.40;99.90
29551;DHT22;16488;52.396;10.696;2023-07-31T01:58:09;15.40;99.90
29551;DHT22;16488;52.396;10.696;2023-07-31T02:00:35;15.40;99.90
29551;DHT22;16488;52.396;10.696;2023-07-31T02:03:01;15.40;99.90
29551;DHT22;16488;52.396;10.696;2023-07-31T02:05:26;15.30;99.90
29551;DHT22;16488;52.396;10.696;2023-07-31T02:07:52;15.40;99.90
29551;DHT22;16488;52.396;10.696;2023-07-31T02:10:17;15.40;99.90
29551;DHT22;16488;52.396;10.696;2023-07-31T02:12:43;15.40;99.90
29551;DHT22;16488;52.396;10.696;2023-07-31T02:15:09;15.40;99.90
29551;DHT22;16488;52.396;10.696;2023-07-31T02:17:34;15.40;99.90
29551;DHT22;16488;52.396;10.696;2023-07-31T02:20:00;15.40;99.90
29551;DHT22;16488;52.396;10.696;2023-07-31T02:22:26;15.50;99.90
29551;DHT22;16488;52.396;10.696;2023-07-31T02:24:51;15.40;99.90
29551;DHT22;16488;52.396;10.696;2023-07-31T02:27:17;15.40;99.90
29551;DHT22;16488;52.396;10.696;2023-07-31T02:29:42;15.40;99.90
29551;DHT22;16488;52.396;10.696;2023-07-31T02:32:08;15.40;99.90
29551;DHT22;16488;52.396;10.696;2023-07-31T02:34:34;15.40;99.90
29551;DHT22;16488;52.396;10.696;2023-07-31T02:36:59;15.30;99.90
29551;DHT22;16488;52.396;10.696;2023-07-31T02:39:25;15.30;99.90
29551;DHT22;16488;52.396;10.696;2023-07-31T02:41:50;15.30;99.90
29551;DHT22;16488;52.396;10.696;2023-07-31T02:44:16;15.30;99.90
29551;DHT22;16488;52.396;10.696;2023-07-31T02:46:42;15.30;99.90
29551;DHT22;16488;52.396;10.696;2023-07-31T02:49:07;15.30;99.90
29551;DHT22;16488;52.396;10.696;2023-07-31T02:51:33;15.30;99.90
29551;DHT22;16488;52.396;10.696;2023-07-31T02:53:58;15.30;99.90
29551;DHT22;16488;52.396;10.696;2023-07-31T02:56:24;15.30;99.90
29551;DHT22;16488;52.396;10.696;2023-07-31T02:58:49;15.30;99.90
29551;DHT22;16488;52.396;10.696;2023-07-31T03:01:15;15.30;99.90
29551;DHT22;16488;52.396;10.696;2023-07-31T03:03:41;15.20;99.90
29551;DHT22;16488;52.396;10.696;2023-07-31T03:06:07;15.20;99.90
29551;DHT22;16488;52.396;10.696;2023-07-31T03:08:33;15.30;99.90
29551;DHT22;16488;52.396;10.696;2023-07-31T03:10:58;15.30;99.90
29551;DHT22;16488;52.396;10.696;2023-07-31T03:13:24;15.30;99.90
29551;DHT22;16488;52.396;10.696;2023-07-31T03:15:50;15.30;99.90
29551;DHT22;16488;52.396;10.696;2023-07-31T03:18:16;15.30;99.90
29551;DHT22;16488;52.396;10.696;2023-07-31T03:20:42;15.30;99.90
29551;DHT22;16488;52.396;10.696;2023-07-31T03:23:09;15.20;99.90
29551;DHT22;16488;52.396;10.696;2023-07-31T03:25:35;15.20;99.90
29551;DHT22;16488;52.396;10.696;2023-07-31T03:28:00;15.20;99.90
29551;DHT22;16488;52.396;10.696;2023-07-31T03:30:26;15.20;99.90
29551;DHT22;16488;52.396;10.696;2023-07-31T03:32:52;15.20;99.90
29551;DHT22;16488;52.396;10.696;2023-07-31T03:35:18;15.20;99.90
29551;DHT22;16488;52.396;10.696;2023-07-31T03:37:43;15.20;99.90
29551;DHT22;16488;52.396;10.696;2023-07-31T03:40:09;15.20;99.90
29551;DHT22;16488;52.396;10.696;2023-07-31T03:42:35;15.20;99.90
29551;DHT22;16488;52.396;10.696;2023-07-31T03:45:01;15.30;99.90
29551;DHT22;16488;52.396;10.696;2023-07-31T03:47:27;15.20;99.90
29551;DHT22;16488;52.396;10.696;2023-07-31T03:49:52;15.20;99.90
29551;DHT22;16488;52.396;10.696;2023-07-31T03:52:18;15.20;99.90
29551;DHT22;16488;52.396;10.696;2023-07-31T03:54:43;15.20;99.90
29551;DHT22;16488;52.396;10.696;2023-07-31T03:57:10;15.20;99.90
29551;DHT22;16488;52.396;10.696;2023-07-31T03:59:36;15.30;99.90
29551;DHT22;16488;52.396;10.696;2023-07-31T04:02:04;15.20;99.90
29551;DHT22;16488;52.396;10.696;2023-07-31T04:04:30;15.20;99.90
29551;DHT22;16488;52.396;10.696;2023-07-31T04:06:55;15.20;99.90
29551;DHT22;16488;52.396;10.696;2023-07-31T04:09:21;15.30;99.90
29551;DHT22;16488;52.396;10.696;2023-07-31T04:11:46;15.30;99.90
29551;DHT22;16488;52.396;10.696;2023-07-31T04:14:12;15.30;99.90
29551;DHT22;16488;52.396;10.696;2023-07-31T04:16:37;15.20;99.90
29551;DHT22;16488;52.396;10.696;2023-07-31T04:19:03;15.20;99.90
29551;DHT22;16488;52.396;10.696;2023-07-31T04:21:29;15.20;99.90
29551;DHT22;16488;52.396;10.696;2023-07-31T04:23:55;15.30;99.90
29551;DHT22;16488;52.396;10.696;2023-07-31T04:26:21;15.30;99.90
29551;DHT22;16488;52.396;10.696;2023-07-31T04:28:47;15.30;99.90
29551;DHT22;16488;52.396;10.696;2023-07-31T04:31:12;15.30;99.90
29551;DHT22;16488;52.396;10.696;2023-07-31T04:33:38;15.30;99.90
29551;DHT22;16488;52.396;10.696;2023-07-31T04:36:04;15.30;99.90
29551;DHT22;16488;52.396;10.696;2023-07-31T04:38:30;15.30;99.90
29551;DHT22;16488;52.396;10.696;2023-07-31T04:40:56;15.30;99.90
29551;DHT22;16488;52.396;10.696;2023-07-31T04:43:21;15.30;99.90
29551;DHT22;16488;52.396;10.696;2023-07-31T04:45:47;15.40;99.90
29551;DHT22;16488;52.396;10.696;2023-07-31T04:48:15;15.30;99.90
29551;DHT22;16488;52.396;10.696;2023-07-31T04:50:41;15.30;99.90
29551;DHT22;16488;52.396;10.696;2023-07-31T04:53:07;15.30;99.90
29551;DHT22;16488;52.396;10.696;2023-07-31T04:55:32;15.30;99.90
29551;DHT22;16488;52.396;10.696;2023-07-31T04:57:59;15.30;99.90
29551;DHT22;16488;52.396;10.696;2023-07-31T05:00:24;15.30;99.90
29551;DHT22;16488;52.396;10.696;2023-07-31T05:02:50;15.30;99.90
29551;DHT22;16488;52.396;10.696;2023-07-31T05:05:16;15.40;99.90
29551;DHT22;16488;52.396;10.696;2023-07-31T05:07:41;15.40;99.90
29551;DHT22;16488;52.396;10.696;2023-07-31T05:10:07;15.30;99.90
29551;DHT22;16488;52.396;10.696;2023-07-31T05:12:33;15.30;99.90
29551;DHT22;16488;52.396;10.696;2023-07-31T05:14:58;15.30;99.90
29551;DHT22;16488;52.396;10.696;2023-07-31T05:17:24;15.30;99.90
29551;DHT22;16488;52.396;10.696;2023-07-31T05:19:50;15.30;99.90
29551;DHT22;16488;52.396;10.696;2023-07-31T05:22:15;15.30;99.90
29551;DHT22;16488;52.396;10.696;2023-07-31T05:24:41;15.30;99.90
29551;DHT22;16488;52.396;10.696;2023-07-31T05:27:06;15.20;99.90
29551;DHT22;16488;52.396;10.696;2023-07-31T05:29:32;15.10;99.90
29551;DHT22;16488;52.396;10.696;2023-07-31T05:31:57;15.10;99.90
29551;DHT22;16488;52.396;10.696;2023-07-31T05:34:23;15.00;99.90
29551;DHT22;16488;52.396;10.696;2023-07-31T05:36:49;15.00;99.90
29551;DHT22;16488;52.396;10.696;2023-07-31T05:39:14;14.90;99.90
29551;DHT22;16488;52.396;10.696;2023-07-31T05:41:40;14.90;99.90
29551;DHT22;16488;52.396;10.696;2023-07-31T05:44:05;14.80;99.90
29551;DHT22;16488;52.396;10.696;2023-07-31T05:46:31;14.80;99.90
29551;DHT22;16488;52.396;10.696;2023-07-31T05:48:56;14.70;99.90
29551;DHT22;16488;52.396;10.696;2023-07-31T05:51:22;14.70;99.90
29551;DHT22;16488;52.396;10.696;2023-07-31T05:53:48;14.70;99.90
29551;DHT22;16488;52.396;10.696;2023-07-31T05:56:13;14.70;99.90
29551;DHT22;16488;52.396;10.696;2023-07-31T05:58:39;14.60;99.90
29551;DHT22;16488;52.396;10.696;2023-07-31T06:01:04;14.70;99.90
29551;DHT22;16488;52.396;10.696;2023-07-31T06:03:30;14.70;99.90
29551;DHT22;16488;52.396;10.696;2023-07-31T06:05:56;14.70;99.90
29551;DHT22;16488;52.396;10.696;2023-07-31T06:08:21;14.70;99.90
29551;DHT22;16488;52.396;10.696;2023-07-31T06:10:47;14.70;99.90
29551;DHT22;16488;52.396;10.696;2023-07-31T06:13:12;14.70;99.90
29551;DHT22;16488;52.396;10.696;2023-07-31T06:15:38;14.70;99.90
29551;DHT22;16488;52.396;10.696;2023-07-31T06:18:04;14.70;99.90
29551;DHT22;16488;52.396;10.696;2023-07-31T06:20:33;14.70;99.90
29551;DHT22;16488;52.396;10.696;2023-07-31T06:22:59;14.80;99.90
29551;DHT22;16488;52.396;10.696;2023-07-31T06:25:25;14.80;99.90
29551;DHT22;16488;52.396;10.696;2023-07-31T06:27:50;14.80;99.90
29551;DHT22;16488;52.396;10.696;2023-07-31T06:30:16;14.90;99.90
29551;DHT22;16488;52.396;10.696;2023-07-31T06:32:42;14.90;99.90
29551;DHT22;16488;52.396;10.696;2023-07-31T06:35:08;15.00;99.90
29551;DHT22;16488;52.396;10.696;2023-07-31T06:37:34;15.10;99.90
29551;DHT22;16488;52.396;10.696;2023-07-31T06:39:59;15.10;99.90
29551;DHT22;16488;52.396;10.696;2023-07-31T06:42:25;15.10;99.90
29551;DHT22;16488;52.396;10.696;2023-07-31T06:44:51;15.20;99.90
29551;DHT22;16488;52.396;10.696;2023-07-31T06:47:16;15.20;99.90
29551;DHT22;16488;52.396;10.696;2023-07-31T06:49:42;15.30;99.90
29551;DHT22;16488;52.396;10.696;2023-07-31T06:52:08;15.30;99.90
29551;DHT22;16488;52.396;10.696;2023-07-31T06:54:34;15.30;99.90
29551;DHT22;16488;52.396;10.696;2023-07-31T06:56:59;15.40;99.90
29551;DHT22;16488;52.396;10.696;2023-07-31T06:59:25;15.40;99.90
29551;DHT22;16488;52.396;10.696;2023-07-31T07:01:51;15.60;99.90
29551;DHT22;16488;52.396;10.696;2023-07-31T07:04:16;15.70;99.90
29551;DHT22;16488;52.396;10.696;2023-07-31T07:06:42;15.80;99.90
29551;DHT22;16488;52.396;10.696;2023-07-31T07:09:07;15.80;99.90
29551;DHT22;16488;52.396;10.696;2023-07-31T07:11:33;15.90;99.90
29551;DHT22;16488;52.396;10.696;2023-07-31T07:13:59;15.90;99.90
29551;DHT22;16488;52.396;10.696;2023-07-31T07:16:25;15.90;99.90
29551;DHT22;16488;52.396;10.696;2023-07-31T07:18:51;16.00;99.90
29551;DHT22;16488;52.396;10.696;2023-07-31T07:21:17;16.00;99.90
29551;DHT22;16488;52.396;10.696;2023-07-31T07:23:43;16.00;99.90
29551;DHT22;16488;52.396;10.696;2023-07-31T07:26:09;16.00;99.90
29551;DHT22;16488;52.396;10.696;2023-07-31T07:28:34;16.00;99.90
29551;DHT22;16488;52.396;10.696;2023-07-31T07:31:02;16.00;99.90
29551;DHT22;16488;52.396;10.696;2023-07-31T07:33:28;16.00;99.90
29551;DHT22;16488;52.396;10.696;2023-07-31T07:35:54;15.90;99.90
29551;DHT22;16488;52.396;10.696;2023-07-31T07:38:19;15.90;99.90
29551;DHT22;16488;52.396;10.696;2023-07-31T07:40:46;16.00;99.90
29551;DHT22;16488;52.396;10.696;2023-07-31T07:43:15;15.90;99.90
29551;DHT22;16488;52.396;10.696;2023-07-31T07:45:41;16.00;99.90
29551;DHT22;16488;52.396;10.696;2023-07-31T07:48:07;15.90;99.90
29551;DHT22;16488;52.396;10.696;2023-07-31T07:50:32;15.90;99.90
29551;DHT22;16488;52.396;10.696;2023-07-31T07:52:58;15.90;99.90
29551;DHT22;16488;52.396;10.696;2023-07-31T07:55:24;15.90;99.90
29551;DHT22;16488;52.396;10.696;2023-07-31T07:57:49;15.90;99.90
29551;DHT22;16488;52.396;10.696;2023-07-31T08:00:16;15.90;99.90
29551;DHT22;16488;52.396;10.696;2023-07-31T08:02:43;15.90;99.90
29551;DHT22;16488;52.396;10.696;2023-07-31T08:05:09;15.90;99.90
29551;DHT22;16488;52.396;10.696;2023-07-31T08:07:35;15.90;99.90
29551;DHT22;16488;52.396;10.696;2023-07-31T08:10:00;16.00;99.90
29551;DHT22;16488;52.396;10.696;2023-07-31T08:12:26;16.00;99.90
29551;DHT22;16488;52.396;10.696;2023-07-31T08:14:52;16.00;99.90
29551;DHT22;16488;52.396;10.696;2023-07-31T08:17:17;16.10;99.90
29551;DHT22;16488;52.396;10.696;2023-07-31T08:19:43;16.30;99.90
29551;DHT22;16488;52.396;10.696;2023-07-31T08:22:09;16.40;99.90
29551;DHT22;16488;52.396;10.696;2023-07-31T08:24:35;16.50;99.90
29551;DHT22;16488;52.396;10.696;2023-07-31T08:27:00;16.50;99.90
29551;DHT22;16488;52.396;10.696;2023-07-31T08:29:26;16.60;99.90
29551;DHT22;16488;52.396;10.696;2023-07-31T08:31:52;16.70;99.90
29551;DHT22;16488;52.396;10.696;2023-07-31T08:34:17;17.00;99.90
29551;DHT22;16488;52.396;10.696;2023-07-31T08:36:43;16.90;99.90
29551;DHT22;16488;52.396;10.696;2023-07-31T08:39:08;16.90;99.90
29551;DHT22;16488;52.396;10.696;2023-07-31T08:41:38;16.90;99.90
29551;DHT22;16488;52.396;10.696;2023-07-31T08:44:05;16.90;99.90
29551;DHT22;16488;52.396;10.696;2023-07-31T08:46:31;17.00;99.90
29551;DHT22;16488;52.396;10.696;2023-07-31T08:48:58;17.00;99.90
29551;DHT22;16488;52.396;10.696;2023-07-31T08:51:24;17.00;99.90
29551;DHT22;16488;52.396;10.696;2023-07-31T08:53:50;17.00;99.90
29551;DHT22;16488;52.396;10.696;2023-07-31T08:56:15;17.00;99.90
29551;DHT22;16488;52.396;10.696;2023-07-31T08:58:43;17.00;99.90
29551;DHT22;16488;52.396;10.696;2023-07-31T09:01:09;17.10;99.90
29551;DHT22;16488;52.396;10.696;2023-07-31T09:03:36;17.10;99.90
29551;DHT22;16488;52.396;10.696;2023-07-31T09:06:03;17.00;99.90
29551;DHT22;16488;52.396;10.696;2023-07-31T09:08:31;17.10;99.90
29551;DHT22;16488;52.396;10.696;2023-07-31T09:11:01;17.10;99.90
29551;DHT22;16488;52.396;10.696;2023-07-31T09:13:31;17.00;99.90
29551;DHT22;16488;52.396;10.696;2023-07-31T09:15:56;17.00;99.90
29551;DHT22;16488;52.396;10.696;2023-07-31T09:18:22;16.90;99.90
29551;DHT22;16488;52.396;10.696;2023-07-31T09:21:06;16.90;99.90
29551;DHT22;16488;52.396;10.696;2023-07-31T09:23:44;16.90;99.90
29551;DHT22;16488;52.396;10.696;2023-07-31T09:26:10;16.90;99.90
29551;DHT22;16488;52.396;10.696;2023-07-31T09:28:36;16.90;99.90
29551;DHT22;16488;52.396;10.696;2023-07-31T09:31:01;16.90;99.90
29551;DHT22;16488;52.396;10.696;2023-07-31T09:33:27;16.90;99.90
29551;DHT22;16488;52.396;10.696;2023-07-31T09:35:53;16.90;99.90
29551;DHT22;16488;52.396;10.696;2023-07-31T09:38:18;16.80;99.90
29551;DHT22;16488;52.396;10.696;2023-07-31T09:40:47;16.80;99.90
29551;DHT22;16488;52.396;10.696;2023-07-31T09:43:18;16.80;99.90
29551;DHT22;16488;52.396;10.696;2023-07-31T09:45:44;16.90;99.90
29551;DHT22;16488;52.396;10.696;2023-07-31T09:48:12;16.90;99.90
29551;DHT22;16488;52.396;10.696;2023-07-31T09:50:40;16.80;99.90
29551;DHT22;16488;52.396;10.696;2023-07-31T09:53:07;16.80;99.90
29551;DHT22;16488;52.396;10.696;2023-07-31T09:55:33;16.80;99.90
29551;DHT22;16488;52.396;10.696;2023-07-31T09:57:59;16.80;99.90
29551;DHT22;16488;52.396;10.696;2023-07-31T10:00:25;16.80;99.90
29551;DHT22;16488;52.396;10.696;2023-07-31T10:02:58;16.80;99.90
29551;DHT22;16488;52.396;10.696;2023-07-31T10:05:24;16.80;99.90
29551;DHT22;16488;52.396;10.696;2023-07-31T10:07:55;16.90;99.90
29551;DHT22;16488;52.396;10.696;2023-07-31T10:10:22;17.00;99.90
29551;DHT22;16488;52.396;10.696;2023-07-31T10:12:49;17.00;99.90
29551;DHT22;16488;52.396;10.696;2023-07-31T10:15:19;17.10;99.90
29551;DHT22;16488;52.396;10.696;2023-07-31T10:17:47;17.10;99.90
29551;DHT22;16488;52.396;10.696;2023-07-31T10:20:14;17.20;99.90
29551;DHT22;16488;52.396;10.696;2023-07-31T10:22:45;17.10;99.90
29551;DHT22;16488;52.396;10.696;2023-07-31T10:25:15;17.10;99.90
29551;DHT22;16488;52.396;10.696;2023-07-31T10:27:41;17.00;99.90
29551;DHT22;16488;52.396;10.696;2023-07-31T10:30:14;17.10;99.90
29551;DHT22;16488;52.396;10.696;2023-07-31T10:32:41;17.00;99.90
29551;DHT22;16488;52.396;10.696;2023-07-31T10:35:09;17.00;99.90
29551;DHT22;16488;52.396;10.696;2023-07-31T10:37:40;16.90;99.90
29551;DHT22;16488;52.396;10.696;2023-07-31T10:40:17;16.80;99.90
29551;DHT22;16488;52.396;10.696;2023-07-31T10:42:50;16.80;99.90
29551;DHT22;16488;52.396;10.696;2023-07-31T10:45:34;16.80;99.90
29551;DHT22;16488;52.396;10.696;2023-07-31T10:48:06;16.80;99.90
29551;DHT22;16488;52.396;10.696;2023-07-31T10:50:37;16.90;99.90
29551;DHT22;16488;52.396;10.696;2023-07-31T10:53:03;17.00;99.90
29551;DHT22;16488;52.396;10.696;2023-07-31T10:58:09;17.20;99.90
29551;DHT22;16488;52.396;10.696;2023-07-31T11:00:38;17.30;99.90
29551;DHT22;16488;52.396;10.696;2023-07-31T11:03:15;17.40;99.90
29551;DHT22;16488;52.396;10.696;2023-07-31T11:05:47;17.60;99.90
29551;DHT22;16488;52.396;10.696;2023-07-31T11:08:22;17.70;99.90
29551;DHT22;16488;52.396;10.696;2023-07-31T11:10:50;17.80;99.90
29551;DHT22;16488;52.396;10.696;2023-07-31T11:13:16;18.00;99.90
29551;DHT22;16488;52.396;10.696;2023-07-31T11:15:42;18.10;99.90
29551;DHT22;16488;52.396;10.696;2023-07-31T11:18:08;18.20;99.90
29551;DHT22;16488;52.396;10.696;2023-07-31T11:20:36;18.20;99.90
29551;DHT22;16488;52.396;10.696;2023-07-31T11:23:08;18.40;99.90
29551;DHT22;16488;52.396;10.696;2023-07-31T11:25:34;18.40;99.90
29551;DHT22;16488;52.396;10.696;2023-07-31T11:28:09;18.50;99.90
29551;DHT22;16488;52.396;10.696;2023-07-31T11:30:35;18.40;99.90
29551;DHT22;16488;52.396;10.696;2023-07-31T11:33:02;18.50;99.90
29551;DHT22;16488;52.396;10.696;2023-07-31T11:35:33;18.60;99.90
29551;DHT22;16488;52.396;10.696;2023-07-31T11:37:59;18.80;99.90
29551;DHT22;16488;52.396;10.696;2023-07-31T11:40:25;19.00;99.90
29551;DHT22;16488;52.396;10.696;2023-07-31T11:43:04;19.10;99.90
29551;DHT22;16488;52.396;10.696;2023-07-31T11:45:30;19.20;99.90
29551;DHT22;16488;52.396;10.696;2023-07-31T11:47:56;19.30;99.90
29551;DHT22;16488;52.396;10.696;2023-07-31T11:50:23;19.50;99.90
29551;DHT22;16488;52.396;10.696;2023-07-31T11:52:55;19.50;99.90
29551;DHT22;16488;52.396;10.696;2023-07-31T11:55:23;19.60;99.90
29551;DHT22;16488;52.396;10.696;2023-07-31T11:57:49;19.60;99.90
29551;DHT22;16488;52.396;10.696;2023-07-31T12:00:15;19.50;99.90
29551;DHT22;16488;52.396;10.696;2023-07-31T12:02:42;19.40;99.90
29551;DHT22;16488;52.396;10.696;2023-07-31T12:05:14;19.50;99.90
29551;DHT22;16488;52.396;10.696;2023-07-31T12:07:47;19.50;99.90
29551;DHT22;16488;52.396;10.696;2023-07-31T12:10:29;19.40;99.90
29551;DHT22;16488;52.396;10.696;2023-07-31T12:13:09;19.30;99.90
29551;DHT22;16488;52.396;10.696;2023-07-31T12:15:45;19.40;99.90
29551;DHT22;16488;52.396;10.696;2023-07-31T12:18:19;19.30;99.90
29551;DHT22;16488;52.396;10.696;2023-07-31T12:20:53;19.30;99.90
29551;DHT22;16488;52.396;10.696;2023-07-31T12:23:22;19.30;99.90
29551;DHT22;16488;52.396;10.696;2023-07-31T12:26:08;19.30;99.90
29551;DHT22;16488;52.396;10.696;2023-07-31T12:28:37;19.30;99.90
29551;DHT22;16488;52.396;10.696;2023-07-31T12:31:05;19.30;99.90
29551;DHT22;16488;52.396;10.696;2023-07-31T12:33:32;19.20;99.90
29551;DHT22;16488;52.396;10.696;2023-07-31T12:36:00;19.10;99.90
29551;DHT22;16488;52.396;10.696;2023-07-31T12:38:26;19.00;99.90
29551;DHT22;16488;52.396;10.696;2023-07-31T12:40:51;19.00;99.90
29551;DHT22;16488;52.396;10.696;2023-07-31T12:43:17;18.90;99.90
29551;DHT22;16488;52.396;10.696;2023-07-31T12:45:43;19.00;99.90
29551;DHT22;16488;52.396;10.696;2023-07-31T12:48:09;19.00;99.90
29551;DHT22;16488;52.396;10.696;2023-07-31T12:50:35;19.00;99.90
29551;DHT22;16488;52.396;10.696;2023-07-31T12:53:02;19.00;99.90
29551;DHT22;16488;52.396;10.696;2023-07-31T12:55:28;19.00;99.90
29551;DHT22;16488;52.396;10.696;2023-07-31T12:57:55;19.00;99.90
29551;DHT22;16488;52.396;10.696;2023-07-31T13:00:21;19.00;99.90
29551;DHT22;16488;52.396;10.696;2023-07-31T13:02:47;19.00;99.90
29551;DHT22;16488;52.396;10.696;2023-07-31T13:05:13;19.00;99.90
29551;DHT22;16488;52.396;10.696;2023-07-31T13:07:39;19.00;99.90
29551;DHT22;16488;52.396;10.696;2023-07-31T13:10:06;18.90;99.90
29551;DHT22;16488;52.396;10.696;2023-07-31T13:12:32;18.80;99.90
29551;DHT22;16488;52.396;10.696;2023-07-31T13:14:57;18.80;99.90
29551;DHT22;16488;52.396;10.696;2023-07-31T13:17:23;18.80;99.90
29551;DHT22;16488;52.396;10.696;2023-07-31T13:19:49;18.90;99.90
29551;DHT22;16488;52.396;10.696;2023-07-31T13:22:14;19.00;99.90
29551;DHT22;16488;52.396;10.696;2023-07-31T13:24:40;19.00;99.90
29551;DHT22;16488;52.396;10.696;2023-07-31T13:27:05;19.10;99.90
29551;DHT22;16488;52.396;10.696;2023-07-31T13:29:31;19.10;99.90
29551;DHT22;16488;52.396;10.696;2023-07-31T13:31:57;19.00;99.90
29551;DHT22;16488;52.396;10.696;2023-07-31T13:34:23;18.90;99.90
29551;DHT22;16488;52.396;10.696;2023-07-31T13:36:49;18.70;99.90
29551;DHT22;16488;52.396;10.696;2023-07-31T13:39:15;18.60;99.90
29551;DHT22;16488;52.396;10.696;2023-07-31T13:41:40;18.50;99.90
29551;DHT22;16488;52.396;10.696;2023-07-31T13:44:06;18.50;99.90
29551;DHT22;16488;52.396;10.696;2023-07-31T13:46:32;18.50;99.90
29551;DHT22;16488;52.396;10.696;2023-07-31T13:48:58;18.40;99.90
29551;DHT22;16488;52.396;10.696;2023-07-31T13:51:25;18.40;99.90
29551;DHT22;16488;52.396;10.696;2023-07-31T13:53:51;18.50;99.90
29551;DHT22;16488;52.396;10.696;2023-07-31T13:56:16;18.60;99.90
29551;DHT22;16488;52.396;10.696;2023-07-31T13:58:42;18.70;99.90
29551;DHT22;16488;52.396;10.696;2023-07-31T14:01:07;18.80;99.90
29551;DHT22;16488;52.396;10.696;2023-07-31T14:03:33;18.80;99.90
29551;DHT22;16488;52.396;10.696;2023-07-31T14:05:59;18.70;99.90
29551;DHT22;16488;52.396;10.696;2023-07-31T14:08:24;18.80;99.90
29551;DHT22;16488;52.396;10.696;2023-07-31T14:10:50;18.80;99.90
29551;DHT22;16488;52.396;10.696;2023-07-31T14:13:15;18.80;99.90
29551;DHT22;16488;52.396;10.696;2023-07-31T14:15:42;18.80;99.90
29551;DHT22;16488;52.396;10.696;2023-07-31T14:18:11;18.80;99.90
29551;DHT22;16488;52.396;10.696;2023-07-31T14:20:36;18.90;99.90
29551;DHT22;16488;52.396;10.696;2023-07-31T14:23:02;18.90;99.90
29551;DHT22;16488;52.396;10.696;2023-07-31T14:25:28;18.90;99.90
29551;DHT22;16488;52.396;10.696;2023-07-31T14:27:54;19.00;99.90
29551;DHT22;16488;52.396;10.696;2023-07-31T14:30:19;19.10;99.90
29551;DHT22;16488;52.396;10.696;2023-07-31T14:32:46;19.20;99.90
29551;DHT22;16488;52.396;10.696;2023-07-31T14:35:11;19.20;99.90
29551;DHT22;16488;52.396;10.696;2023-07-31T14:37:39;19.20;99.90
29551;DHT22;16488;52.396;10.696;2023-07-31T14:40:05;19.10;99.90
29551;DHT22;16488;52.396;10.696;2023-07-31T14:42:30;19.10;99.90
29551;DHT22;16488;52.396;10.696;2023-07-31T14:44:56;19.10;99.90
29551;DHT22;16488;52.396;10.696;2023-07-31T14:47:22;19.00;99.90
29551;DHT22;16488;52.396;10.696;2023-07-31T14:49:47;19.00;99.90
29551;DHT22;16488;52.396;10.696;2023-07-31T14:52:13;18.90;99.90
29551;DHT22;16488;52.396;10.696;2023-07-31T14:54:38;18.90;99.90
29551;DHT22;16488;52.396;10.696;2023-07-31T14:57:04;19.00;99.90
29551;DHT22;16488;52.396;10.696;2023-07-31T14:59:30;19.00;99.90
29551;DHT22;16488;52.396;10.696;2023-07-31T15:01:55;19.00;99.90
29551;DHT22;16488;52.396;10.696;2023-07-31T15:04:22;19.00;99.90
29551;DHT22;16488;52.396;10.696;2023-07-31T15:06:47;19.10;99.90
29551;DHT22;16488;52.396;10.696;2023-07-31T15:09:14;19.10;99.90
29551;DHT22;16488;52.396;10.696;2023-07-31T15:11:40;19.20;99.90
29551;DHT22;16488;52.396;10.696;2023-07-31T15:14:05;19.30;99.90
29551;DHT22;16488;52.396;10.696;2023-07-31T15:16:31;19.30;99.90
29551;DHT22;16488;52.396;10.696;2023-07-31T15:18:57;19.30;99.90
29551;DHT22;16488;52.396;10.696;2023-07-31T15:21:23;19.30;99.90